Weather at Ling Lake Airfield

Public forecast

Using degrees Celsius for public forecast. Weather courtesy of forecast.io.

Closest aviation weather report (METAR) to Ling Lake Airfield

Closest report is Melbourne International Airport, 23.3 nm (43.2 km) WSW.

2024/06/19 04:30 (retrieved 14 minutes ago)

YMML 190430Z 03007KT 9999 FEW038 SCT270 11/02 Q1015 RF000/0000

Closest aviation forecast (TAF) to Ling Lake Airfield

Forecast is more than 6 hours old.

Closest forecast is Nouméa Magenta Airport, 1,427.0 nm (2,642.7 km) NE.

2024/06/18 18:00 (retrieved 11 hours ago)

TAF NWWM 181700Z 1818/1918 VRB03KT 9999 FEW035 SCT050